Time;durP1;ratioP1;P1;durP2;ratioP2;P2;SDS_P1;SDS_P2;PMS_P1;PMS_P2;Temp;Humidity;BMP_temperature;BMP_pressure;BME280_temperature;BME280_humidity;BME280_pressure;Samples;Min_cycle;Max_cycle;Signal;HPM_P1;HPM_P2
2023/08/11 00:00:48;;;;;;;2.20;1.97;;;23.60;91.80;;;;;;4976785;28;20447;-84
2023/08/11 00:03:16;;;;;;;1.70;1.60;;;23.60;91.80;;;;;;4977241;28;20463;-83
2023/08/11 00:05:43;;;;;;;2.07;1.60;;;23.60;91.90;;;;;;4976851;28;20449;-84
2023/08/11 00:08:13;;;;;;;2.47;1.97;;;23.60;91.80;;;;;;4977930;28;20444;-82
2023/08/11 00:10:39;;;;;;;1.90;1.70;;;23.60;91.80;;;;;;4976965;28;20443;-82
2023/08/11 00:13:12;;;;;;;1.80;1.70;;;23.60;91.80;;;;;;4976831;28;20452;-82
2023/08/11 00:15:39;;;;;;;3.93;1.80;;;23.60;91.90;;;;;;4977537;28;20500;-82
2023/08/11 00:18:06;;;;;;;2.33;2.00;;;23.60;91.80;;;;;;4976521;28;20524;-84
2023/08/11 00:20:33;;;;;;;2.37;2.17;;;23.70;91.90;;;;;;4976591;28;20441;-82
2023/08/11 00:23:00;;;;;;;2.60;2.40;;;23.70;91.90;;;;;;4976766;28;20444;-82
2023/08/11 00:25:27;;;;;;;2.83;2.10;;;23.60;91.90;;;;;;4976457;28;20469;-82
2023/08/11 00:27:53;;;;;;;2.20;2.00;;;23.60;91.90;;;;;;4976910;28;20452;-86
2023/08/11 00:30:23;;;;;;;2.00;1.80;;;23.60;91.90;;;;;;4976616;28;20808;-83
2023/08/11 00:32:50;;;;;;;2.50;2.30;;;23.60;91.90;;;;;;4976457;28;20524;-83
2023/08/11 00:35:17;;;;;;;2.10;1.90;;;23.60;91.90;;;;;;4976016;28;20436;-82
2023/08/11 00:37:44;;;;;;;2.27;1.73;;;23.60;91.90;;;;;;4976220;28;20495;-82
2023/08/11 00:40:12;;;;;;;2.10;1.90;;;23.60;91.90;;;;;;4975895;28;20441;-82
2023/08/11 00:42:38;;;;;;;2.43;2.00;;;23.60;91.90;;;;;;4975846;28;20517;-82
2023/08/11 00:45:07;;;;;;;2.37;1.80;;;23.60;91.90;;;;;;4975228;28;20807;-82
2023/08/11 00:47:35;;;;;;;1.87;1.50;;;23.60;91.90;;;;;;4975914;28;20432;-82
2023/08/11 00:50:02;;;;;;;4.20;2.20;;;23.60;91.90;;;;;;4976313;28;20441;-82
2023/08/11 00:52:29;;;;;;;2.40;2.03;;;23.60;91.90;;;;;;4975916;28;20438;-82
2023/08/11 00:54:57;;;;;;;2.67;1.97;;;23.60;91.90;;;;;;4976502;28;20461;-83
2023/08/11 00:57:24;;;;;;;2.00;1.80;;;23.60;91.90;;;;;;4976180;28;20498;-83
2023/08/11 00:59:51;;;;;;;1.80;1.50;;;23.60;91.90;;;;;;4975553;28;20441;-82
2023/08/11 01:02:18;;;;;;;2.63;1.80;;;23.60;91.90;;;;;;4975850;28;20448;-82
2023/08/11 01:04:46;;;;;;;2.30;1.90;;;23.60;91.90;;;;;;4975592;28;20447;-82
2023/08/11 01:07:22;;;;;;;2.27;2.00;;;23.60;91.90;;;;;;4975434;28;20437;-82
2023/08/11 01:09:59;;;;;;;1.87;1.70;;;23.60;92.00;;;;;;4975890;28;20448;-82
2023/08/11 01:12:34;;;;;;;1.97;1.80;;;23.60;92.00;;;;;;4975922;28;20977;-82
2023/08/11 01:15:11;;;;;;;1.60;1.43;;;23.60;92.00;;;;;;4975325;28;20475;-82
2023/08/11 01:17:40;;;;;;;2.43;2.23;;;23.60;92.00;;;;;;4977336;28;20482;-89
2023/08/11 01:20:11;;;;;;;2.10;1.87;;;23.60;92.00;;;;;;4975567;28;20809;-82
2023/08/11 01:22:42;;;;;;;2.40;2.20;;;23.60;92.00;;;;;;4977409;28;20497;-84
2023/08/11 01:25:11;;;;;;;2.40;1.90;;;23.60;92.00;;;;;;4977023;28;20458;-82
2023/08/11 01:27:44;;;;;;;1.90;1.70;;;23.60;91.90;;;;;;4975397;28;20435;-82
2023/08/11 01:30:12;;;;;;;2.77;1.90;;;23.60;92.00;;;;;;4975394;28;20520;-82
2023/08/11 01:32:39;;;;;;;1.67;1.57;;;23.60;92.00;;;;;;4975231;28;20440;-82
2023/08/11 01:35:09;;;;;;;2.00;1.80;;;23.70;92.00;;;;;;4975420;28;20441;-83
2023/08/11 01:37:39;;;;;;;1.80;1.70;;;23.50;91.90;;;;;;4975602;28;20526;-82
2023/08/11 01:40:10;;;;;;;2.67;2.30;;;23.60;91.90;;;;;;4975188;28;20445;-82
2023/08/11 01:42:39;;;;;;;1.60;1.50;;;23.60;91.90;;;;;;4975724;28;20441;-82
2023/08/11 01:45:07;;;;;;;2.93;1.97;;;23.50;91.90;;;;;;4974831;28;20489;-82
2023/08/11 01:47:35;;;;;;;2.53;1.77;;;23.60;91.90;;;;;;4974849;28;20809;-84
2023/08/11 01:50:03;;;;;;;1.87;1.77;;;23.50;91.90;;;;;;4976085;28;20451;-84
2023/08/11 01:52:33;;;;;;;3.10;1.77;;;23.50;91.90;;;;;;4976796;28;20533;-84
2023/08/11 01:54:59;;;;;;;2.17;1.60;;;23.50;91.90;;;;;;4975964;28;20872;-84
2023/08/11 01:57:26;;;;;;;2.50;1.70;;;23.50;91.90;;;;;;4976060;28;20491;-84
2023/08/11 01:59:55;;;;;;;2.07;1.90;;;23.50;91.80;;;;;;4976472;28;20437;-84
2023/08/11 02:02:22;;;;;;;2.03;1.83;;;23.50;91.80;;;;;;4977314;28;20452;-84
2023/08/11 02:04:49;;;;;;;1.90;1.40;;;23.50;91.90;;;;;;4976762;28;20450;-84
2023/08/11 02:07:16;;;;;;;1.50;1.40;;;23.50;91.90;;;;;;4975607;28;20512;-82
2023/08/11 02:09:43;;;;;;;1.77;1.40;;;23.50;91.90;;;;;;4975301;28;20790;-83
2023/08/11 02:12:09;;;;;;;1.90;1.80;;;23.50;91.90;;;;;;4975112;28;20440;-83
2023/08/11 02:14:36;;;;;;;2.10;1.63;;;23.50;91.90;;;;;;4974851;28;20448;-83
2023/08/11 02:17:05;;;;;;;2.00;1.80;;;23.50;91.90;;;;;;4974854;28;20480;-84
2023/08/11 02:19:31;;;;;;;2.30;1.70;;;23.50;91.90;;;;;;4975009;28;20437;-84
2023/08/11 02:21:58;;;;;;;2.53;1.90;;;23.60;91.90;;;;;;4975126;28;20444;-83
2023/08/11 02:24:25;;;;;;;1.73;1.60;;;23.50;91.90;;;;;;4974932;28;20461;-83
2023/08/11 02:26:52;;;;;;;1.90;1.60;;;23.50;91.90;;;;;;4974660;28;20449;-83
2023/08/11 02:29:18;;;;;;;3.57;1.83;;;23.60;91.90;;;;;;4974596;28;20438;-83
2023/08/11 02:31:45;;;;;;;2.03;1.53;;;23.50;91.80;;;;;;4974751;28;20443;-84
2023/08/11 02:34:13;;;;;;;1.93;1.63;;;23.50;91.80;;;;;;4974876;28;20790;-84
2023/08/11 02:36:40;;;;;;;1.97;1.70;;;23.50;91.80;;;;;;4975027;28;20467;-83
2023/08/11 02:39:08;;;;;;;4.37;1.40;;;23.50;91.80;;;;;;4974166;28;20447;-84
2023/08/11 02:41:35;;;;;;;2.10;1.50;;;23.60;91.90;;;;;;4975033;28;20449;-83
2023/08/11 02:44:02;;;;;;;1.60;1.50;;;23.50;91.80;;;;;;4975301;28;20440;-85
2023/08/11 02:46:29;;;;;;;1.60;1.50;;;23.50;91.80;;;;;;4975021;28;20476;-83
2023/08/11 02:48:55;;;;;;;1.53;1.43;;;23.50;91.80;;;;;;4974496;28;20445;-83
2023/08/11 02:51:24;;;;;;;1.80;1.70;;;23.50;91.80;;;;;;4974946;28;20512;-83
2023/08/11 02:53:50;;;;;;;2.00;1.73;;;23.50;91.80;;;;;;4974500;28;20451;-83
2023/08/11 02:56:17;;;;;;;1.60;1.50;;;23.50;91.80;;;;;;4974538;28;20437;-83
2023/08/11 02:58:44;;;;;;;1.67;1.57;;;23.50;91.90;;;;;;4974467;28;20490;-83
2023/08/11 03:01:11;;;;;;;1.97;1.50;;;23.50;91.80;;;;;;4974963;28;20528;-83
2023/08/11 03:03:38;;;;;;;1.70;1.60;;;23.50;91.80;;;;;;4978379;28;20453;-83
2023/08/11 03:06:04;;;;;;;1.70;1.43;;;23.50;91.80;;;;;;4979040;28;20450;-84
2023/08/11 03:08:33;;;;;;;2.57;1.60;;;23.50;91.80;;;;;;4980467;28;20453;-83
2023/08/11 03:10:59;;;;;;;1.80;1.60;;;23.50;91.80;;;;;;4980462;28;20444;-84
2023/08/11 03:13:28;;;;;;;1.50;1.20;;;23.50;91.80;;;;;;4979705;28;20451;-85
2023/08/11 03:15:55;;;;;;;1.60;1.50;;;23.50;91.80;;;;;;4980274;28;20451;-85
2023/08/11 03:18:22;;;;;;;1.30;1.20;;;23.50;91.80;;;;;;4978088;28;20497;-83
2023/08/11 03:20:50;;;;;;;1.40;1.30;;;23.50;91.80;;;;;;4978599;28;20446;-84
2023/08/11 03:23:17;;;;;;;1.50;1.40;;;23.50;91.80;;;;;;4978128;28;20443;-83
2023/08/11 03:25:45;;;;;;;2.60;1.27;;;23.50;91.80;;;;;;4978056;28;20466;-84
2023/08/11 03:28:12;;;;;;;2.10;1.70;;;23.50;91.80;;;;;;4978035;28;20433;-83
2023/08/11 03:30:39;;;;;;;1.40;1.30;;;23.50;91.80;;;;;;4977972;28;20452;-84
2023/08/11 03:33:06;;;;;;;2.00;1.90;;;23.50;91.80;;;;;;4977952;28;20444;-83
2023/08/11 03:35:33;;;;;;;2.90;1.67;;;23.40;91.80;;;;;;4977580;28;20439;-83
2023/08/11 03:38:00;;;;;;;1.90;1.80;;;23.50;91.80;;;;;;4977911;28;20580;-84
2023/08/11 03:40:27;;;;;;;1.50;1.40;;;23.40;91.80;;;;;;4977429;28;20925;-83
2023/08/11 03:42:55;;;;;;;1.70;1.60;;;23.40;91.80;;;;;;4977317;28;20437;-84
2023/08/11 03:45:22;;;;;;;1.80;1.70;;;23.40;91.80;;;;;;4977197;28;20472;-84
2023/08/11 03:47:48;;;;;;;1.67;1.57;;;23.40;91.80;;;;;;4977803;28;20445;-90
2023/08/11 03:50:15;;;;;;;1.43;1.33;;;23.40;91.80;;;;;;4977612;28;20446;-84
2023/08/11 03:52:42;;;;;;;1.67;1.57;;;23.40;91.80;;;;;;4977424;28;20539;-84
2023/08/11 03:55:10;;;;;;;1.70;1.57;;;23.40;91.80;;;;;;4977473;28;20455;-84
2023/08/11 03:57:37;;;;;;;2.07;1.70;;;23.40;91.80;;;;;;4977703;28;21069;-84
2023/08/11 04:00:09;;;;;;;1.80;1.70;;;23.40;91.80;;;;;;4976755;28;20959;-84
2023/08/11 04:02:36;;;;;;;1.80;1.43;;;23.40;91.80;;;;;;4977707;28;20448;-83
2023/08/11 04:05:06;;;;;;;1.60;1.50;;;23.40;91.70;;;;;;4977065;28;20440;-83
2023/08/11 04:07:33;;;;;;;1.60;1.50;;;23.40;91.80;;;;;;4977234;28;20472;-83
2023/08/11 04:09:59;;;;;;;1.60;1.40;;;23.40;91.70;;;;;;4979586;28;20440;-84
2023/08/11 04:12:26;;;;;;;1.47;1.37;;;23.40;91.80;;;;;;4980341;28;20968;-86
2023/08/11 04:14:53;;;;;;;1.67;1.57;;;23.40;91.70;;;;;;4980266;28;20439;-84
2023/08/11 04:17:28;;;;;;;1.80;1.10;;;23.40;91.70;;;;;;4980034;28;20490;-84
2023/08/11 04:19:55;;;;;;;1.50;1.40;;;23.40;91.80;;;;;;4976903;28;20460;-83
2023/08/11 04:22:22;;;;;;;1.73;1.57;;;23.60;91.90;;;;;;4977053;28;20444;-84
2023/08/11 04:24:48;;;;;;;1.50;1.40;;;23.40;91.80;;;;;;4976756;28;20813;-83
2023/08/11 04:27:15;;;;;;;1.30;1.20;;;23.40;91.80;;;;;;4976290;28;20452;-84
2023/08/11 04:29:42;;;;;;;2.63;1.43;;;23.60;91.90;;;;;;4975992;28;20449;-83
2023/08/11 04:32:09;;;;;;;2.90;2.60;;;23.40;91.80;;;;;;4975994;28;20525;-84
2023/08/11 04:34:37;;;;;;;4.33;2.63;;;23.40;91.40;;;;;;4975904;28;20446;-87
2023/08/11 04:37:05;;;;;;;3.00;2.10;;;23.40;91.20;;;;;;4976091;28;20532;-87
2023/08/11 04:39:31;;;;;;;4.07;2.60;;;23.30;91.30;;;;;;4976941;28;20498;-87
2023/08/11 04:41:58;;;;;;;7.27;2.83;;;23.20;91.40;;;;;;4975952;28;20456;-85
2023/08/11 04:44:25;;;;;;;3.63;2.67;;;23.10;91.50;;;;;;4976012;28;20436;-86
2023/08/11 04:46:52;;;;;;;3.50;3.20;;;23.20;91.50;;;;;;4976043;28;20571;-85
2023/08/11 04:49:18;;;;;;;4.70;3.33;;;23.00;91.50;;;;;;4975782;28;20441;-93
2023/08/11 04:51:46;;;;;;;5.20;2.93;;;23.00;91.50;;;;;;4976587;28;20797;-85
2023/08/11 04:54:13;;;;;;;3.23;2.93;;;23.00;91.70;;;;;;4975670;28;20537;-87
2023/08/11 04:56:40;;;;;;;6.67;3.73;;;22.90;91.70;;;;;;4975991;28;20795;-88
2023/08/11 04:59:07;;;;;;;3.57;3.27;;;22.90;91.70;;;;;;4975592;28;20585;-89
2023/08/11 05:01:34;;;;;;;3.20;3.00;;;22.80;91.70;;;;;;4975542;28;20459;-91
2023/08/11 05:04:01;;;;;;;5.37;3.47;;;22.80;91.80;;;;;;4975457;28;20451;-88
2023/08/11 05:06:28;;;;;;;5.40;3.43;;;22.70;91.80;;;;;;4976366;28;20440;-87
2023/08/11 05:09:00;;;;;;;5.30;2.93;;;22.90;92.10;;;;;;4981000;28;20458;-86
2023/08/11 05:11:27;;;;;;;3.20;2.90;;;22.70;92.10;;;;;;4980660;28;20432;-87
2023/08/11 05:13:54;;;;;;;5.53;3.23;;;22.70;92.20;;;;;;4983169;28;20439;-87
2023/08/11 05:16:21;;;;;;;5.43;3.53;;;22.70;92.30;;;;;;4980674;28;20451;-86
2023/08/11 05:18:48;;;;;;;8.20;3.30;;;22.80;92.40;;;;;;4977634;28;20844;-86
2023/08/11 05:21:14;;;;;;;4.20;2.80;;;22.60;92.40;;;;;;4978279;28;20448;-87
2023/08/11 05:23:41;;;;;;;3.23;2.60;;;22.60;92.40;;;;;;4975958;28;20447;-84
2023/08/11 05:26:09;;;;;;;22.03;3.60;;;22.60;92.40;;;;;;4974831;28;20516;-85
2023/08/11 05:28:36;;;;;;;6.33;3.23;;;22.70;92.50;;;;;;4975340;28;20956;-84
2023/08/11 05:31:04;;;;;;;6.73;3.47;;;22.60;92.40;;;;;;4974479;28;20959;-87
2023/08/11 05:33:31;;;;;;;5.13;3.20;;;22.60;92.50;;;;;;4975287;28;20546;-83
2023/08/11 05:35:58;;;;;;;5.37;3.07;;;22.70;92.50;;;;;;4975303;28;20522;-85
2023/08/11 05:38:24;;;;;;;5.17;3.50;;;22.70;92.60;;;;;;4974888;28;20515;-85
2023/08/11 05:40:52;;;;;;;7.93;3.20;;;22.70;92.50;;;;;;4973837;28;20446;-84
2023/08/11 05:43:20;;;;;;;6.07;3.33;;;22.60;92.60;;;;;;4975020;28;20450;-84
2023/08/11 05:45:47;;;;;;;5.43;3.33;;;22.70;92.60;;;;;;4975151;28;20483;-86
2023/08/11 05:48:13;;;;;;;3.60;3.10;;;22.60;93.00;;;;;;4975175;28;20443;-84
2023/08/11 05:50:40;;;;;;;3.70;3.20;;;22.60;92.70;;;;;;4975536;28;20452;-86
2023/08/11 05:53:07;;;;;;;7.47;3.37;;;22.60;92.80;;;;;;4975625;28;20442;-84
2023/08/11 05:55:34;;;;;;;7.07;3.50;;;22.80;92.90;;;;;;4974636;28;20466;-83
2023/08/11 05:58:00;;;;;;;6.20;3.50;;;22.60;92.80;;;;;;4974747;28;20476;-83
2023/08/11 06:00:28;;;;;;;8.53;3.30;;;22.60;93.00;;;;;;4975084;28;20445;-84
2023/08/11 06:02:55;;;;;;;3.50;3.20;;;22.60;93.00;;;;;;4974656;28;20443;-84
2023/08/11 06:05:23;;;;;;;5.77;2.53;;;22.60;93.40;;;;;;4975074;28;20450;-84
2023/08/11 06:07:50;;;;;;;3.60;3.30;;;22.60;93.10;;;;;;4975056;28;21434;-84
2023/08/11 06:10:17;;;;;;;3.97;2.83;;;22.60;93.20;;;;;;4974829;28;20767;-84
2023/08/11 06:12:44;;;;;;;8.40;3.30;;;22.60;93.20;;;;;;4974918;28;20447;-84
2023/08/11 06:15:11;;;;;;;3.07;2.77;;;22.70;93.10;;;;;;4974417;28;20458;-83
2023/08/11 06:17:39;;;;;;;3.13;2.87;;;22.70;93.10;;;;;;4974828;28;20443;-84
2023/08/11 06:20:10;;;;;;;6.30;2.70;;;22.70;93.10;;;;;;4974290;28;20447;-84
2023/08/11 06:22:37;;;;;;;5.57;3.23;;;22.70;93.10;;;;;;4973927;28;20543;-89
2023/08/11 06:25:05;;;;;;;8.73;3.40;;;22.80;93.20;;;;;;4974496;28;20540;-90
2023/08/11 06:27:33;;;;;;;4.10;3.40;;;22.80;93.20;;;;;;4974713;28;20461;-87
2023/08/11 06:30:01;;;;;;;5.73;3.50;;;22.80;93.20;;;;;;4974631;28;20451;-87
2023/08/11 06:32:28;;;;;;;4.10;3.30;;;22.80;93.30;;;;;;4974767;28;20951;-87
2023/08/11 06:34:56;;;;;;;5.93;2.73;;;22.80;93.40;;;;;;4975003;28;20800;-87
2023/08/11 06:37:23;;;;;;;3.70;2.83;;;22.80;93.50;;;;;;4974183;28;20456;-89
2023/08/11 06:39:51;;;;;;;16.80;3.53;;;22.80;93.60;;;;;;4973899;28;21014;-87
2023/08/11 06:42:18;;;;;;;4.20;3.10;;;23.00;93.70;;;;;;4976276;28;20526;-88
2023/08/11 06:44:45;;;;;;;4.40;2.90;;;22.80;93.50;;;;;;4978677;28;20451;-91
2023/08/11 06:47:12;;;;;;;3.23;2.93;;;22.80;93.50;;;;;;4978486;28;20444;-89
2023/08/11 06:49:38;;;;;;;4.90;3.37;;;22.90;93.60;;;;;;4978680;28;20530;-88
2023/08/11 06:52:07;;;;;;;4.10;2.70;;;22.90;93.70;;;;;;4978912;28;20450;-89
2023/08/11 06:54:34;;;;;;;4.83;3.00;;;22.90;93.70;;;;;;4978736;28;20982;-86
2023/08/11 06:57:03;;;;;;;3.83;2.93;;;22.90;93.70;;;;;;4980683;28;20449;-91
2023/08/11 06:59:30;;;;;;;28.47;2.90;;;23.00;93.60;;;;;;4978113;28;20492;-91
2023/08/11 07:01:57;;;;;;;2.60;2.40;;;23.00;93.20;;;;;;4978251;28;20456;-93
2023/08/11 07:04:24;;;;;;;5.07;2.23;;;23.10;93.10;;;;;;4978448;28;20444;-94
2023/08/11 07:06:51;;;;;;;3.20;2.63;;;23.00;93.00;;;;;;4978155;28;20970;-89
2023/08/11 07:09:19;;;;;;;3.90;2.97;;;23.00;92.90;;;;;;4978627;28;20518;-90
2023/08/11 07:11:46;;;;;;;3.03;2.70;;;23.00;92.80;;;;;;4978308;28;20985;-91
2023/08/11 07:14:12;;;;;;;3.27;2.53;;;23.10;92.80;;;;;;4977948;28;21054;-91
2023/08/11 07:16:39;;;;;;;5.80;3.03;;;23.10;92.80;;;;;;4978299;28;20469;-94
2023/08/11 07:19:06;;;;;;;2.53;2.10;;;23.10;92.80;;;;;;4977540;28;20491;-94
2023/08/11 07:21:33;;;;;;;4.00;2.30;;;23.10;92.70;;;;;;4977738;28;20453;-90
2023/08/11 07:24:00;;;;;;;2.77;2.33;;;23.10;92.70;;;;;;4977707;28;20465;-91
2023/08/11 07:26:28;;;;;;;2.47;2.27;;;23.10;93.10;;;;;;4977780;28;20802;-90
2023/08/11 07:28:55;;;;;;;3.23;2.43;;;23.10;92.70;;;;;;4977647;28;20446;-91
2023/08/11 07:31:22;;;;;;;2.33;2.13;;;23.10;92.70;;;;;;4977965;28;20452;-91
2023/08/11 07:33:48;;;;;;;2.30;2.10;;;23.20;92.80;;;;;;4977561;28;20832;-89
2023/08/11 07:36:15;;;;;;;2.50;2.30;;;23.10;92.70;;;;;;4977980;28;20540;-92
2023/08/11 07:38:42;;;;;;;2.20;2.00;;;23.20;92.70;;;;;;4977784;28;20496;-91
2023/08/11 07:41:09;;;;;;;3.20;2.27;;;23.20;92.70;;;;;;4977756;28;20460;-94
2023/08/11 07:43:37;;;;;;;2.47;2.27;;;23.20;92.70;;;;;;4977600;28;20448;-92
2023/08/11 07:46:04;;;;;;;2.07;1.83;;;23.20;92.60;;;;;;4977257;28;20892;-92
2023/08/11 07:48:31;;;;;;;2.10;1.90;;;23.20;92.70;;;;;;4977239;28;20445;-89
2023/08/11 07:50:58;;;;;;;2.03;1.93;;;23.30;92.70;;;;;;4977383;28;20445;-92
2023/08/11 07:53:24;;;;;;;2.33;2.13;;;23.20;92.60;;;;;;4977186;28;20467;-93
2023/08/11 07:55:51;;;;;;;3.60;2.37;;;23.30;92.60;;;;;;4977181;28;20452;-89
2023/08/11 07:58:18;;;;;;;2.33;2.10;;;23.20;92.60;;;;;;4977075;28;20440;-91
2023/08/11 08:00:47;;;;;;;1.83;1.73;;;23.20;93.00;;;;;;4977447;28;20454;-93
2023/08/11 08:03:13;;;;;;;5.50;2.30;;;23.20;92.60;;;;;;4977047;28;20531;-92
2023/08/11 08:05:40;;;;;;;1.83;1.60;;;23.20;92.60;;;;;;4976944;28;20916;-91
2023/08/11 08:08:07;;;;;;;1.90;1.80;;;23.20;92.60;;;;;;4976878;28;20450;-92
2023/08/11 08:10:34;;;;;;;1.77;1.67;;;23.20;92.50;;;;;;4977079;28;20532;-92
2023/08/11 08:13:01;;;;;;;2.23;2.03;;;23.20;92.50;;;;;;4976829;28;20444;-89
2023/08/11 08:15:28;;;;;;;2.03;1.83;;;23.30;92.60;;;;;;4977164;28;20879;-92
2023/08/11 08:17:56;;;;;;;1.80;1.70;;;23.20;92.50;;;;;;4976929;28;20544;-91
2023/08/11 08:20:23;;;;;;;2.00;1.80;;;23.30;92.60;;;;;;4976742;28;20489;-90
2023/08/11 08:22:50;;;;;;;2.50;1.80;;;23.30;92.50;;;;;;4977090;28;20450;-90
2023/08/11 08:25:17;;;;;;;2.23;1.90;;;23.30;92.50;;;;;;4976611;28;20500;-90
2023/08/11 08:27:45;;;;;;;1.57;1.47;;;23.30;92.50;;;;;;4976706;28;20445;-92
2023/08/11 08:30:12;;;;;;;2.37;2.03;;;23.30;92.60;;;;;;4976870;28;20453;-92
2023/08/11 08:32:40;;;;;;;2.10;1.90;;;23.30;92.50;;;;;;4977017;28;20854;-92
2023/08/11 08:35:09;;;;;;;1.60;1.50;;;23.40;92.60;;;;;;4976671;28;20451;-90
2023/08/11 08:37:36;;;;;;;2.00;1.70;;;23.30;92.60;;;;;;4976573;28;20445;-93
2023/08/11 08:40:07;;;;;;;1.57;1.47;;;23.30;92.60;;;;;;4976706;28;20488;-91
2023/08/11 08:42:34;;;;;;;1.60;1.50;;;23.30;93.00;;;;;;4976661;28;20444;-92
2023/08/11 08:45:03;;;;;;;2.07;1.80;;;23.30;92.60;;;;;;4976120;28;20449;-91
2023/08/11 08:47:30;;;;;;;2.07;1.87;;;23.30;92.60;;;;;;4976503;28;20437;-91
2023/08/11 08:49:59;;;;;;;2.30;2.17;;;23.30;92.60;;;;;;4976532;28;20443;-89
2023/08/11 08:52:28;;;;;;;3.00;1.80;;;23.30;92.60;;;;;;4976336;28;20804;-92
2023/08/11 08:54:56;;;;;;;1.63;1.53;;;23.30;92.60;;;;;;4976423;28;20460;-89
2023/08/11 08:57:26;;;;;;;2.17;1.97;;;23.40;92.70;;;;;;4976314;28;20448;-92
2023/08/11 08:59:53;;;;;;;1.93;1.83;;;23.30;92.60;;;;;;4976324;28;20488;-94
2023/08/11 09:02:20;;;;;;;1.60;1.40;;;23.40;92.60;;;;;;4976390;28;20445;-90
2023/08/11 09:04:47;;;;;;;2.80;2.00;;;23.30;92.50;;;;;;4975460;28;21027;-94
2023/08/11 09:07:14;;;;;;;2.13;1.70;;;23.30;92.50;;;;;;4975953;28;20441;-90
2023/08/11 09:09:42;;;;;;;1.90;1.80;;;23.30;92.50;;;;;;4976092;28;20450;-94
2023/08/11 09:12:09;;;;;;;1.77;1.57;;;23.30;92.50;;;;;;4975964;28;20963;-90
2023/08/11 09:14:38;;;;;;;2.30;2.10;;;23.30;92.50;;;;;;4975914;28;20555;-88
2023/08/11 09:17:05;;;;;;;1.60;1.50;;;23.30;92.50;;;;;;4975551;28;20441;-90
2023/08/11 09:19:33;;;;;;;1.70;1.60;;;23.30;92.60;;;;;;4975127;28;20999;-88
2023/08/11 09:21:59;;;;;;;2.33;1.77;;;23.30;92.60;;;;;;4975661;28;20456;-91
2023/08/11 09:24:29;;;;;;;1.90;1.77;;;23.30;92.60;;;;;;4975744;28;20461;-89
2023/08/11 09:26:59;;;;;;;2.33;1.67;;;23.50;92.80;;;;;;4966955;28;20794;-90
2023/08/11 09:29:26;;;;;;;1.63;1.53;;;23.40;92.70;;;;;;4955898;29;20449;-91
2023/08/11 09:31:55;;;;;;;1.70;1.50;;;23.40;92.70;;;;;;4955803;29;20461;-90
2023/08/11 09:34:23;;;;;;;1.77;1.50;;;23.40;92.80;;;;;;4955778;29;20917;-89
2023/08/11 09:36:50;;;;;;;2.10;1.80;;;23.40;92.80;;;;;;4955788;29;20452;-89
2023/08/11 09:39:18;;;;;;;2.10;1.90;;;23.40;92.80;;;;;;4956521;29;20592;-90
2023/08/11 09:41:47;;;;;;;1.70;1.60;;;23.40;92.80;;;;;;4974176;28;20451;-92
2023/08/11 09:44:17;;;;;;;1.80;1.70;;;23.40;92.90;;;;;;4976593;28;20956;-91
2023/08/11 09:46:44;;;;;;;1.93;1.80;;;23.40;92.90;;;;;;4979714;28;20528;-90
2023/08/11 09:49:11;;;;;;;2.00;1.53;;;23.40;92.80;;;;;;4977735;28;20456;-91
2023/08/11 09:51:39;;;;;;;1.90;1.57;;;23.40;92.80;;;;;;4977458;28;20451;-93
2023/08/11 09:54:09;;;;;;;1.90;1.70;;;23.40;92.80;;;;;;4980520;28;20469;-95
2023/08/11 09:56:37;;;;;;;2.07;1.77;;;23.40;92.90;;;;;;4975112;28;20445;-93
2023/08/11 09:59:06;;;;;;;1.77;1.67;;;23.50;92.90;;;;;;4963874;28;20534;-88
2023/08/11 10:01:36;;;;;;;2.07;1.70;;;23.40;92.90;;;;;;4973961;28;20445;-89
2023/08/11 10:04:10;;;;;;;2.27;1.60;;;23.40;92.90;;;;;;4975407;28;20853;-90
2023/08/11 10:06:41;;;;;;;1.70;1.50;;;23.40;92.90;;;;;;4974900;28;20912;-92
2023/08/11 10:09:12;;;;;;;1.53;1.40;;;23.40;92.80;;;;;;4974887;28;20453;-91
2023/08/11 10:11:41;;;;;;;2.20;1.70;;;23.40;92.80;;;;;;4957641;28;20529;-92
2023/08/11 10:14:11;;;;;;;1.40;1.30;;;23.40;92.80;;;;;;4974899;28;20446;-91
2023/08/11 10:16:39;;;;;;;2.23;1.77;;;23.60;93.00;;;;;;4975730;28;20540;-92
2023/08/11 10:19:07;;;;;;;1.60;1.50;;;23.40;92.80;;;;;;4979017;28;20791;-92
2023/08/11 10:21:34;;;;;;;2.53;1.97;;;23.40;92.80;;;;;;4979080;28;20809;-92
2023/08/11 10:24:01;;;;;;;1.80;1.70;;;23.40;92.90;;;;;;4978879;28;20565;-91
2023/08/11 10:26:31;;;;;;;2.90;1.90;;;23.50;92.90;;;;;;4978949;28;20486;-94
2023/08/11 10:28:58;;;;;;;1.93;1.73;;;23.40;92.90;;;;;;4978559;28;20955;-92
2023/08/11 10:31:25;;;;;;;1.70;1.30;;;23.60;93.00;;;;;;4978771;28;20999;-91
2023/08/11 10:33:54;;;;;;;2.00;1.80;;;23.60;93.00;;;;;;4978528;28;20456;-90
2023/08/11 10:36:24;;;;;;;1.73;1.63;;;23.50;93.00;;;;;;4978326;28;20547;-90
2023/08/11 10:39:03;;;;;;;1.83;1.73;;;23.50;93.00;;;;;;4978658;28;20440;-91
2023/08/11 10:41:30;;;;;;;1.73;1.53;;;23.50;93.00;;;;;;4978498;28;20532;-92
2023/08/11 10:43:58;;;;;;;1.83;1.73;;;23.50;93.00;;;;;;4978651;28;20448;-93
2023/08/11 10:46:26;;;;;;;1.60;1.50;;;23.50;92.90;;;;;;4978082;28;20575;-91
2023/08/11 10:48:58;;;;;;;2.70;1.37;;;23.50;93.00;;;;;;4978115;28;20444;-91
2023/08/11 10:51:29;;;;;;;1.50;1.40;;;23.50;93.00;;;;;;4978307;28;20427;-91
2023/08/11 10:53:58;;;;;;;1.70;1.60;;;23.50;92.90;;;;;;4978365;28;20471;-93
2023/08/11 10:56:33;;;;;;;2.23;1.70;;;23.50;93.00;;;;;;4978923;28;20441;-93
2023/08/11 10:59:18;;;;;;;1.50;1.40;;;23.50;93.10;;;;;;4979523;28;20454;-93
2023/08/11 11:01:47;;;;;;;1.77;1.67;;;23.50;93.10;;;;;;4978723;28;20465;-93
2023/08/11 11:04:16;;;;;;;2.57;1.70;;;23.50;93.00;;;;;;4978430;28;20790;-93
2023/08/11 11:06:45;;;;;;;1.70;1.60;;;23.50;93.10;;;;;;4979087;28;20531;-93
2023/08/11 11:09:13;;;;;;;1.57;1.47;;;23.50;93.10;;;;;;4977969;28;20533;-92
2023/08/11 11:11:40;;;;;;;2.23;2.00;;;23.50;93.00;;;;;;4978059;28;20453;-92
2023/08/11 11:14:08;;;;;;;1.73;1.63;;;23.50;93.00;;;;;;4978224;28;20539;-89
2023/08/11 11:16:36;;;;;;;2.53;2.07;;;23.50;93.10;;;;;;4977702;28;20437;-89
2023/08/11 11:19:04;;;;;;;1.97;1.60;;;23.50;93.10;;;;;;4977556;28;20451;-89
2023/08/11 11:21:33;;;;;;;2.60;1.70;;;23.60;93.20;;;;;;4977658;28;20502;-89
2023/08/11 11:24:00;;;;;;;2.10;1.63;;;23.60;93.20;;;;;;4977642;28;20491;-89
2023/08/11 11:26:28;;;;;;;1.43;1.33;;;23.60;93.20;;;;;;4977639;28;20445;-90
2023/08/11 11:28:57;;;;;;;2.00;1.83;;;23.60;93.20;;;;;;4977009;28;20539;-89
2023/08/11 11:31:27;;;;;;;2.47;1.57;;;23.60;93.20;;;;;;4977287;28;20448;-89
2023/08/11 11:33:54;;;;;;;1.57;1.47;;;23.60;93.20;;;;;;4977740;28;20438;-90
2023/08/11 11:36:23;;;;;;;1.30;1.20;;;23.60;93.10;;;;;;4977329;28;20447;-89
2023/08/11 11:38:52;;;;;;;4.90;1.80;;;23.60;93.20;;;;;;4977198;28;20502;-89
2023/08/11 11:41:20;;;;;;;1.60;1.50;;;23.80;93.30;;;;;;4977451;28;21009;-89
2023/08/11 11:43:48;;;;;;;1.70;1.60;;;23.70;93.20;;;;;;4977470;28;20550;-90
2023/08/11 11:46:16;;;;;;;1.77;1.60;;;23.70;93.20;;;;;;4976885;28;20482;-89
2023/08/11 11:48:45;;;;;;;3.10;1.60;;;23.70;93.20;;;;;;4977090;28;20450;-90
2023/08/11 11:51:13;;;;;;;1.50;1.40;;;23.70;93.20;;;;;;4976969;28;20548;-89
2023/08/11 11:53:40;;;;;;;2.20;1.57;;;23.70;93.20;;;;;;4977343;28;20814;-90
2023/08/11 11:56:09;;;;;;;2.83;1.77;;;23.70;93.10;;;;;;4977014;28;20445;-90
2023/08/11 11:58:39;;;;;;;1.73;1.63;;;23.70;93.10;;;;;;4977104;28;20459;-90
2023/08/11 12:01:13;;;;;;;2.10;1.30;;;23.70;93.10;;;;;;4976761;28;20473;-89
2023/08/11 12:03:41;;;;;;;1.43;1.33;;;23.70;93.10;;;;;;4977059;28;20437;-90
2023/08/11 12:06:08;;;;;;;1.60;1.50;;;23.70;93.10;;;;;;4976931;28;20535;-89
2023/08/11 12:08:37;;;;;;;1.40;1.27;;;23.70;93.10;;;;;;4976838;28;20441;-89
2023/08/11 12:11:05;;;;;;;1.90;1.70;;;23.70;93.10;;;;;;4976621;28;20980;-89
2023/08/11 12:13:33;;;;;;;1.20;1.10;;;23.70;93.10;;;;;;4976964;28;20449;-90
2023/08/11 12:16:01;;;;;;;1.83;1.33;;;23.70;93.10;;;;;;4976541;28;20441;-90
2023/08/11 12:18:29;;;;;;;1.40;1.30;;;23.70;93.10;;;;;;4977043;28;20452;-89
2023/08/11 12:20:58;;;;;;;1.90;1.70;;;23.70;93.10;;;;;;4976391;28;20494;-90
2023/08/11 12:23:25;;;;;;;2.00;1.73;;;23.70;93.10;;;;;;4976470;28;20457;-89
2023/08/11 12:25:53;;;;;;;1.40;1.30;;;23.80;93.20;;;;;;4976490;28;20446;-90
2023/08/11 12:28:20;;;;;;;1.30;1.20;;;23.80;93.10;;;;;;4976207;28;20453;-90
2023/08/11 12:30:48;;;;;;;1.60;1.50;;;23.70;93.10;;;;;;4976927;28;20450;-90
2023/08/11 12:33:16;;;;;;;1.70;1.60;;;23.70;93.00;;;;;;4976471;28;20449;-90
2023/08/11 12:35:42;;;;;;;2.03;1.40;;;23.80;93.10;;;;;;4976274;28;20799;-91
2023/08/11 12:38:12;;;;;;;2.33;1.60;;;23.80;93.20;;;;;;4976400;28;20453;-90
2023/08/11 12:40:39;;;;;;;1.60;1.50;;;23.80;93.20;;;;;;4975448;28;20481;-90
2023/08/11 12:43:06;;;;;;;1.57;1.47;;;23.80;93.20;;;;;;4976036;28;20510;-90
2023/08/11 12:45:33;;;;;;;2.93;1.60;;;23.80;93.20;;;;;;4975831;28;20840;-90
2023/08/11 12:48:01;;;;;;;1.50;1.40;;;23.80;93.20;;;;;;4976134;28;20442;-90